createdAt,value
2023-01-19T00:00:46.235Z,99084.84
2023-01-19T00:03:15.999Z,99087.69
2023-01-19T00:05:44.324Z,99074.72
2023-01-19T00:08:14.998Z,99075.69
2023-01-19T00:10:45.136Z,99079.97
2023-01-19T00:13:12.915Z,99084.19
2023-01-19T00:15:40.395Z,99086.03
2023-01-19T00:18:09.815Z,99089.31
2023-01-19T00:20:39.561Z,99080.22
2023-01-19T00:23:08.249Z,99085.28
2023-01-19T00:25:42.326Z,99083.72
2023-01-19T00:28:15.113Z,99076.34
2023-01-19T00:30:43.482Z,99089.00
2023-01-19T00:33:14.560Z,99092.66
2023-01-19T00:35:42.710Z,99075.19
2023-01-19T00:38:12.179Z,99074.34
2023-01-19T00:40:39.696Z,99066.28
2023-01-19T00:43:07.091Z,99070.09
2023-01-19T00:45:34.833Z,99055.44
2023-01-19T00:48:02.344Z,99066.75
2023-01-19T00:50:31.523Z,99060.09
2023-01-19T00:53:01.475Z,99048.88
2023-01-19T00:55:30.616Z,99058.19
2023-01-19T00:57:58.340Z,99057.38
2023-01-19T01:00:26.435Z,99060.56
2023-01-19T01:02:53.967Z,99061.41
2023-01-19T01:05:21.739Z,99074.50
2023-01-19T01:07:50.621Z,99074.34
2023-01-19T01:10:26.819Z,99076.81
2023-01-19T01:12:57.313Z,99074.28
2023-01-19T01:15:26.802Z,99077.59
2023-01-19T01:17:54.411Z,99076.72
2023-01-19T01:20:28.015Z,99069.59
2023-01-19T01:22:56.720Z,99077.84
2023-01-19T01:25:26.078Z,99075.31
2023-01-19T01:27:53.890Z,99077.00
2023-01-19T01:30:21.350Z,99075.00
2023-01-19T01:32:49.076Z,99076.56
2023-01-19T01:35:17.257Z,99072.91
2023-01-19T01:37:44.871Z,99079.16
2023-01-19T01:40:14.628Z,99076.59
2023-01-19T01:42:42.598Z,99075.53
2023-01-19T01:45:29.284Z,99069.41
2023-01-19T01:48:02.811Z,99061.50
2023-01-19T01:50:35.507Z,99057.34
2023-01-19T01:53:08.965Z,99070.41
2023-01-19T01:55:42.105Z,99069.50
2023-01-19T01:58:11.537Z,99067.63
2023-01-19T02:00:59.404Z,99069.50
2023-01-19T02:03:27.844Z,99058.03
2023-01-19T02:05:59.903Z,99072.31
2023-01-19T02:09:09.176Z,99065.00
2023-01-19T02:11:55.039Z,99063.50
2023-01-19T02:14:22.464Z,99057.44
2023-01-19T02:16:49.905Z,99060.13
2023-01-19T02:19:24.730Z,99048.81
2023-01-19T02:22:09.807Z,99065.31
2023-01-19T02:24:39.116Z,99060.84
2023-01-19T02:27:07.861Z,99059.19
2023-01-19T02:29:35.643Z,99055.56
2023-01-19T02:32:03.965Z,99055.19
2023-01-19T02:34:32.337Z,99062.91
2023-01-19T02:37:15.633Z,99057.00
2023-01-19T02:39:51.738Z,99048.41
2023-01-19T02:42:25.341Z,99054.53
2023-01-19T02:44:55.690Z,99055.28
2023-01-19T02:47:23.920Z,99055.59
2023-01-19T02:49:57.376Z,99045.00
2023-01-19T02:52:25.888Z,99047.59
2023-01-19T02:55:22.240Z,99061.69
2023-01-19T02:58:03.754Z,99064.16
2023-01-19T03:00:59.276Z,99080.34
2023-01-19T03:03:47.337Z,99074.84
2023-01-19T03:06:21.695Z,99086.03
2023-01-19T03:09:13.337Z,99083.22
2023-01-19T03:11:56.138Z,99089.31
2023-01-19T03:14:27.054Z,99083.81
2023-01-19T03:16:59.261Z,99076.06
2023-01-19T03:19:31.895Z,99082.88
2023-01-19T03:22:03.110Z,99078.44
2023-01-19T03:24:37.119Z,99083.72
2023-01-19T03:27:33.682Z,99084.31
2023-01-19T03:30:09.916Z,99099.28
2023-01-19T03:32:48.457Z,99101.25
2023-01-19T03:35:19.815Z,99099.47
2023-01-19T03:37:50.318Z,99100.09
2023-01-19T03:40:17.977Z,99094.84
2023-01-19T03:42:45.983Z,99101.06
2023-01-19T03:45:14.918Z,99102.72
2023-01-19T03:47:42.464Z,99108.91
2023-01-19T03:50:19.947Z,99112.72
2023-01-19T03:53:08.773Z,99102.41
2023-01-19T03:55:37.851Z,99101.22
2023-01-19T03:58:05.197Z,99085.69
2023-01-19T04:00:33.733Z,99087.31
2023-01-19T04:03:01.472Z,99077.53
2023-01-19T04:05:29.550Z,99094.00
2023-01-19T04:07:56.973Z,99085.13
2023-01-19T04:10:24.475Z,99101.66
2023-01-19T04:12:58.273Z,99092.00
2023-01-19T04:15:26.197Z,99094.69
2023-01-19T04:17:53.681Z,99094.69
2023-01-19T04:20:21.778Z,99087.09
2023-01-19T04:22:49.715Z,99086.09
2023-01-19T04:25:17.114Z,99093.09
2023-01-19T04:27:44.493Z,99088.72
2023-01-19T04:30:12.431Z,99098.16
2023-01-19T04:32:39.924Z,99088.06
2023-01-19T04:35:07.501Z,99096.78
2023-01-19T04:37:34.846Z,99091.63
2023-01-19T04:40:02.173Z,99094.09
2023-01-19T04:42:29.643Z,99090.97
2023-01-19T04:44:57.007Z,99098.88
2023-01-19T04:47:24.311Z,99109.53
2023-01-19T04:49:51.691Z,99101.88
2023-01-19T04:52:19.551Z,99088.81
2023-01-19T04:54:46.999Z,99101.16
2023-01-19T04:57:14.343Z,99086.63
2023-01-19T04:59:41.915Z,99097.28
2023-01-19T05:02:09.378Z,99098.19
2023-01-19T05:04:36.783Z,99105.63
2023-01-19T05:07:04.077Z,99110.66
2023-01-19T05:09:31.452Z,99114.59
2023-01-19T05:11:58.775Z,99112.97
2023-01-19T05:14:26.267Z,99116.59
2023-01-19T05:16:53.795Z,99121.81
2023-01-19T05:19:21.294Z,99120.94
2023-01-19T05:21:48.624Z,99115.81
2023-01-19T05:24:15.990Z,99112.97
2023-01-19T05:26:43.500Z,99111.53
2023-01-19T05:29:10.875Z,99113.19
2023-01-19T05:31:38.345Z,99123.63
2023-01-19T05:34:06.206Z,99126.16
2023-01-19T05:36:33.598Z,99134.78
2023-01-19T05:39:00.919Z,99133.81
2023-01-19T05:41:28.307Z,99138.25
2023-01-19T05:43:55.654Z,99137.44
2023-01-19T05:46:23.331Z,99144.47
2023-01-19T05:48:51.419Z,99151.63
2023-01-19T05:51:18.847Z,99143.81
2023-01-19T05:53:46.149Z,99155.47
2023-01-19T05:56:13.495Z,99152.84
2023-01-19T05:58:40.861Z,99150.25
2023-01-19T06:01:10.127Z,99156.63
2023-01-19T06:03:39.313Z,99158.75
2023-01-19T06:06:06.987Z,99156.00
2023-01-19T06:08:34.404Z,99161.28
2023-01-19T06:11:01.787Z,99169.81
2023-01-19T06:13:29.120Z,99169.94
2023-01-19T06:15:58.352Z,99171.00
2023-01-19T06:18:26.087Z,99176.00
2023-01-19T06:20:58.594Z,99175.03
2023-01-19T06:23:27.056Z,99176.72
2023-01-19T06:25:54.419Z,99182.00
2023-01-19T06:28:22.445Z,99193.09
2023-01-19T06:30:51.017Z,99199.44
2023-01-19T06:33:19.465Z,99207.59
2023-01-19T06:35:48.757Z,99212.53
2023-01-19T06:38:18.580Z,99215.25
2023-01-19T06:40:46.589Z,99214.53
2023-01-19T06:43:14.086Z,99206.66
2023-01-19T06:45:41.485Z,99206.63
2023-01-19T06:48:09.441Z,99205.03
2023-01-19T06:50:36.837Z,99216.09
2023-01-19T06:53:04.219Z,99218.63
2023-01-19T06:55:31.898Z,99223.66
2023-01-19T06:57:59.655Z,99214.34
2023-01-19T07:00:27.246Z,99232.94
2023-01-19T07:02:54.845Z,99247.16
2023-01-19T07:05:22.627Z,99237.25
2023-01-19T07:07:54.982Z,99238.16
2023-01-19T07:10:23.302Z,99238.38
2023-01-19T07:12:50.779Z,99265.44
2023-01-19T07:15:19.851Z,99267.41
2023-01-19T07:17:47.252Z,99271.72
2023-01-19T07:20:15.142Z,99267.53
2023-01-19T07:22:46.687Z,99277.13
2023-01-19T07:25:14.373Z,99273.38
2023-01-19T07:27:41.686Z,99287.78
2023-01-19T07:30:09.603Z,99274.69
2023-01-19T07:32:37.048Z,99299.63
2023-01-19T07:35:04.959Z,99298.81
2023-01-19T07:37:32.437Z,99305.16
2023-01-19T07:39:59.927Z,99308.63
2023-01-19T07:42:27.308Z,99312.16
2023-01-19T07:44:54.771Z,99322.56
2023-01-19T07:47:22.164Z,99322.53
2023-01-19T07:50:24.559Z,99313.94
2023-01-19T07:52:53.617Z,99342.44
2023-01-19T07:55:22.621Z,99337.84
2023-01-19T07:57:51.716Z,99342.06
2023-01-19T08:00:22.057Z,99343.66
2023-01-19T08:02:52.412Z,99355.81
2023-01-19T08:05:21.608Z,99363.38
2023-01-19T08:07:49.198Z,99365.06
2023-01-19T08:10:17.165Z,99372.97
2023-01-19T08:12:44.540Z,99373.88
2023-01-19T08:15:12.160Z,99390.78
2023-01-19T08:17:39.807Z,99396.88
2023-01-19T08:20:09.444Z,99416.72
2023-01-19T08:22:37.423Z,99415.16
2023-01-19T08:25:05.184Z,99431.44
2023-01-19T08:27:32.725Z,99417.81
2023-01-19T08:30:00.142Z,99409.91
2023-01-19T08:32:27.661Z,99440.66
2023-01-19T08:34:55.079Z,99458.38
2023-01-19T08:37:22.599Z,99449.09
2023-01-19T08:39:50.090Z,99466.88
2023-01-19T08:42:17.485Z,99477.88
2023-01-19T08:44:57.386Z,99489.41
2023-01-19T08:47:25.486Z,99490.47
2023-01-19T08:52:58.122Z,99505.84
2023-01-19T08:55:26.671Z,99505.06
2023-01-19T08:57:57.869Z,99512.00
2023-01-19T09:00:27.216Z,99516.38
2023-01-19T09:02:55.057Z,99511.94
2023-01-19T09:05:22.539Z,99521.81
2023-01-19T09:07:51.765Z,99511.22
2023-01-19T09:10:19.242Z,99515.38
2023-01-19T09:12:47.376Z,99529.41
2023-01-19T09:15:14.975Z,99525.94
2023-01-19T09:17:42.585Z,99520.94
2023-01-19T09:20:10.801Z,99528.81
2023-01-19T09:22:39.691Z,99533.03
2023-01-19T09:25:08.030Z,99534.81
2023-01-19T09:27:35.603Z,99542.59
2023-01-19T09:30:04.572Z,99547.72
2023-01-19T09:32:32.001Z,99552.13
2023-01-19T09:34:59.351Z,99550.41
2023-01-19T09:37:26.686Z,99558.47
2023-01-19T09:39:54.145Z,99557.63
2023-01-19T09:42:44.036Z,99555.00
2023-01-19T09:45:26.039Z,99557.78
2023-01-19T09:47:54.604Z,99579.63
2023-01-19T09:53:52.401Z,99594.69
2023-01-19T09:56:21.764Z,99576.28
2023-01-19T09:58:52.847Z,99585.13
2023-01-19T10:02:00.543Z,99588.66
2023-01-19T10:04:51.774Z,99600.03
2023-01-19T10:07:29.474Z,99594.59
2023-01-19T10:10:21.504Z,99598.25
2023-01-19T10:13:11.726Z,99600.91
2023-01-19T10:15:47.062Z,99596.66
2023-01-19T10:18:36.594Z,99594.00
2023-01-19T10:21:17.458Z,99592.22
2023-01-19T10:24:01.595Z,99605.25
2023-01-19T10:26:38.814Z,99587.97
2023-01-19T10:29:16.473Z,99601.19
2023-01-19T10:31:47.738Z,99583.72
2023-01-19T10:34:23.018Z,99588.25
2023-01-19T10:37:00.185Z,99611.63
2023-01-19T10:39:27.583Z,99608.19
2023-01-19T10:41:55.534Z,99595.13
2023-01-19T10:44:29.157Z,99591.69
2023-01-19T10:47:02.199Z,99603.06
2023-01-19T10:49:37.635Z,99575.19
2023-01-19T10:52:07.758Z,99590.81
2023-01-19T10:54:37.468Z,99597.91
2023-01-19T10:57:13.161Z,99586.34
2023-01-19T10:59:56.174Z,99580.50
2023-01-19T11:02:31.585Z,99589.25
2023-01-19T11:05:01.739Z,99582.34
2023-01-19T11:07:34.281Z,99576.16
2023-01-19T11:10:15.488Z,99565.75
2023-01-19T11:12:53.848Z,99570.19
2023-01-19T11:15:25.492Z,99565.72
2023-01-19T11:17:53.666Z,99567.41
2023-01-19T11:20:30.089Z,99555.03
2023-01-19T11:23:06.495Z,99556.81
2023-01-19T11:25:36.782Z,99546.38
2023-01-19T11:28:05.001Z,99534.94
2023-01-19T11:30:34.756Z,99551.38
2023-01-19T11:33:04.717Z,99547.81
2023-01-19T11:35:35.733Z,99550.34
2023-01-19T11:38:18.773Z,99548.44
2023-01-19T11:40:58.099Z,99537.28
2023-01-19T11:43:47.473Z,99545.00
2023-01-19T11:46:18.715Z,99532.81
2023-01-19T11:49:07.785Z,99527.59
2023-01-19T11:51:51.902Z,99516.03
2023-01-19T11:54:32.318Z,99524.69
2023-01-19T11:57:01.071Z,99522.63
2023-01-19T11:59:29.040Z,99505.09
2023-01-19T12:02:00.475Z,99533.75
2023-01-19T12:04:31.875Z,99512.16
2023-01-19T12:07:11.393Z,99540.72
2023-01-19T12:09:46.353Z,99518.88
2023-01-19T12:12:27.374Z,99515.31
2023-01-19T12:15:38.326Z,99524.81
2023-01-19T12:18:41.359Z,99528.41
2023-01-19T12:21:08.874Z,99515.31
2023-01-19T12:23:45.470Z,99514.25
2023-01-19T12:26:41.580Z,99519.31
2023-01-19T12:29:17.151Z,99519.53
2023-01-19T12:31:44.761Z,99505.50
2023-01-19T12:34:31.505Z,99520.09
2023-01-19T12:37:03.868Z,99518.22
2023-01-19T12:39:33.631Z,99525.91
2023-01-19T12:42:12.022Z,99525.94
2023-01-19T12:44:40.378Z,99527.56
2023-01-19T12:47:10.969Z,99524.16
2023-01-19T12:49:56.813Z,99512.09
2023-01-19T12:52:36.014Z,99511.31
2023-01-19T12:55:15.824Z,99510.16
2023-01-19T12:58:30.171Z,99510.09
2023-01-19T13:01:16.993Z,99519.53
2023-01-19T13:03:58.563Z,99518.44
2023-01-19T13:06:48.140Z,99529.72
2023-01-19T13:09:38.302Z,99532.28
2023-01-19T13:12:14.861Z,99528.72
2023-01-19T13:14:44.888Z,99535.59
2023-01-19T13:17:24.560Z,99527.34
2023-01-19T13:20:00.761Z,99529.09
2023-01-19T13:22:47.253Z,99539.66
2023-01-19T13:25:26.812Z,99528.81
2023-01-19T13:27:55.015Z,99539.25
2023-01-19T13:30:27.312Z,99541.78
2023-01-19T13:33:06.326Z,99549.72
2023-01-19T13:35:34.199Z,99553.22
2023-01-19T13:38:02.792Z,99543.66
2023-01-19T13:40:38.925Z,99552.22
2023-01-19T13:43:17.013Z,99554.06
2023-01-19T13:45:51.165Z,99561.00
2023-01-19T13:48:22.677Z,99553.13
2023-01-19T13:51:01.379Z,99568.69
2023-01-19T13:53:30.444Z,99550.19
2023-01-19T13:56:07.166Z,99558.06
2023-01-19T13:58:34.545Z,99560.63
2023-01-19T14:01:02.289Z,99559.22
2023-01-19T14:03:29.836Z,99576.25
2023-01-19T14:05:57.374Z,99573.66
2023-01-19T14:08:25.783Z,99588.03
2023-01-19T14:11:02.230Z,99585.34
2023-01-19T14:13:35.311Z,99591.72
2023-01-19T14:16:18.743Z,99585.63
2023-01-19T14:18:46.465Z,99591.75
2023-01-19T14:21:15.295Z,99591.50
2023-01-19T14:23:45.544Z,99592.56
2023-01-19T14:26:37.682Z,99600.28
2023-01-19T14:29:27.732Z,99599.63
2023-01-19T14:32:21.283Z,99606.75
2023-01-19T14:35:05.561Z,99603.97
2023-01-19T14:37:35.990Z,99599.56
2023-01-19T14:40:10.911Z,99605.84
2023-01-19T14:43:03.105Z,99606.91
2023-01-19T14:45:35.268Z,99609.72
2023-01-19T14:48:17.827Z,99605.97
2023-01-19T14:51:02.102Z,99616.53
2023-01-19T14:53:36.851Z,99610.25
2023-01-19T14:56:06.263Z,99613.75
2023-01-19T14:58:35.197Z,99621.03
2023-01-19T15:01:03.584Z,99616.56
2023-01-19T15:03:44.867Z,99627.88
2023-01-19T15:06:20.980Z,99626.13
2023-01-19T15:08:50.109Z,99624.66
2023-01-19T15:11:32.521Z,99626.41
2023-01-19T15:14:01.153Z,99625.72
2023-01-19T15:16:31.749Z,99639.78
2023-01-19T15:18:59.158Z,99623.97
2023-01-19T15:21:26.856Z,99633.91
2023-01-19T15:23:55.331Z,99635.94
2023-01-19T15:26:25.475Z,99633.47
2023-01-19T15:28:53.388Z,99645.59
2023-01-19T15:31:22.852Z,99641.25
2023-01-19T15:33:50.532Z,99635.28
2023-01-19T15:36:20.882Z,99644.81
2023-01-19T15:38:50.962Z,99630.75
2023-01-19T15:41:27.427Z,99637.06
2023-01-19T15:43:54.845Z,99640.53
2023-01-19T15:46:23.748Z,99644.13
2023-01-19T15:48:52.460Z,99652.94
2023-01-19T15:51:22.575Z,99640.56
2023-01-19T15:53:50.526Z,99655.56
2023-01-19T15:56:30.118Z,99646.34
2023-01-19T15:58:58.576Z,99653.09
2023-01-19T16:01:35.186Z,99645.03
2023-01-19T16:04:05.327Z,99645.84
2023-01-19T16:06:33.228Z,99651.72
2023-01-19T16:09:01.613Z,99646.09
2023-01-19T16:11:32.777Z,99665.53
2023-01-19T16:14:00.969Z,99648.25
2023-01-19T16:16:28.627Z,99645.75
2023-01-19T16:18:56.454Z,99663.97
2023-01-19T16:21:24.174Z,99668.25
2023-01-19T16:23:52.051Z,99665.31
2023-01-19T16:26:28.861Z,99662.78
2023-01-19T16:29:01.476Z,99676.66
2023-01-19T16:31:29.733Z,99665.50
2023-01-19T16:34:24.703Z,99674.97
2023-01-19T16:36:52.227Z,99668.78
2023-01-19T16:39:19.688Z,99673.13
2023-01-19T16:41:47.067Z,99683.78
2023-01-19T16:44:16.071Z,99675.03
2023-01-19T16:46:45.966Z,99686.38
2023-01-19T16:49:16.257Z,99679.44
2023-01-19T16:51:43.950Z,99705.78
2023-01-19T16:54:20.355Z,99691.78
2023-01-19T16:56:48.239Z,99712.59
2023-01-19T16:59:19.113Z,99724.94
2023-01-19T17:01:47.124Z,99726.94
2023-01-19T17:04:14.671Z,99729.63
2023-01-19T17:06:42.123Z,99731.28
2023-01-19T17:09:10.295Z,99740.28
2023-01-19T17:11:37.952Z,99745.44
2023-01-19T17:14:16.473Z,99739.28
2023-01-19T17:16:44.242Z,99737.41
2023-01-19T17:19:17.479Z,99755.72
2023-01-19T17:21:46.319Z,99759.34
2023-01-19T17:24:13.805Z,99753.09
2023-01-19T17:26:42.472Z,99756.47
2023-01-19T17:29:10.221Z,99754.91
2023-01-19T17:31:38.193Z,99748.88
2023-01-19T17:34:05.979Z,99750.44
2023-01-19T17:36:33.759Z,99752.16
2023-01-19T17:39:05.807Z,99752.16
2023-01-19T17:41:37.647Z,99751.38
2023-01-19T17:44:06.307Z,99755.84
2023-01-19T17:46:38.284Z,99761.78
2023-01-19T17:49:07.322Z,99758.03
2023-01-19T17:51:35.354Z,99760.81
2023-01-19T17:54:04.187Z,99749.69
2023-01-19T17:56:36.785Z,99753.88
2023-01-19T17:59:06.606Z,99765.19
2023-01-19T18:01:38.248Z,99757.38
2023-01-19T18:04:06.202Z,99764.41
2023-01-19T18:06:33.905Z,99765.31
2023-01-19T18:09:01.427Z,99765.13
2023-01-19T18:11:28.869Z,99759.69
2023-01-19T18:13:56.260Z,99775.22
2023-01-19T18:16:25.684Z,99777.00
2023-01-19T18:18:54.514Z,99762.13
2023-01-19T18:21:24.066Z,99760.41
2023-01-19T18:23:51.714Z,99762.00
2023-01-19T18:26:21.353Z,99763.69
2023-01-19T18:28:49.350Z,99756.50
2023-01-19T18:31:19.038Z,99753.25
2023-01-19T18:33:48.461Z,99761.69
2023-01-19T18:36:17.196Z,99758.41
2023-01-19T18:38:45.208Z,99751.31
2023-01-19T18:41:15.199Z,99748.03
2023-01-19T18:43:42.862Z,99757.84
2023-01-19T18:46:10.492Z,99764.84
2023-01-19T18:48:39.060Z,99753.47
2023-01-19T18:51:11.798Z,99740.50
2023-01-19T18:53:39.516Z,99746.66
2023-01-19T18:56:08.401Z,99755.56
2023-01-19T18:58:38.772Z,99747.81
2023-01-19T19:01:18.685Z,99758.38
2023-01-19T19:03:46.947Z,99746.31
2023-01-19T19:06:15.741Z,99760.91
2023-01-19T19:08:44.201Z,99761.84
2023-01-19T19:11:14.017Z,99756.56
2023-01-19T19:13:41.914Z,99751.59
2023-01-19T19:16:11.389Z,99761.25
2023-01-19T19:18:39.941Z,99748.06
2023-01-19T19:21:09.722Z,99769.91
2023-01-19T19:23:38.313Z,99757.88
2023-01-19T19:26:08.220Z,99764.84
2023-01-19T19:28:37.387Z,99767.53
2023-01-19T19:31:13.543Z,99765.81
2023-01-19T19:33:41.513Z,99772.88
2023-01-19T19:36:09.985Z,99749.97
2023-01-19T19:38:37.424Z,99746.66
2023-01-19T19:41:06.532Z,99751.06
2023-01-19T19:43:34.574Z,99750.25
2023-01-19T19:46:05.252Z,99754.59
2023-01-19T19:48:33.942Z,99750.38
2023-01-19T19:51:18.328Z,99761.81
2023-01-19T19:53:50.200Z,99759.19
2023-01-19T19:56:21.445Z,99757.50
2023-01-19T19:58:50.588Z,99767.22
2023-01-19T20:01:20.888Z,99762.03
2023-01-19T20:03:48.890Z,99750.72
2023-01-19T20:06:22.339Z,99758.66
2023-01-19T20:08:56.700Z,99750.09
2023-01-19T20:11:30.757Z,99758.75
2023-01-19T20:13:58.357Z,99770.19
2023-01-19T20:16:26.011Z,99770.22
2023-01-19T20:21:49.776Z,99760.44
2023-01-19T20:24:19.659Z,99775.38
2023-01-19T20:26:52.905Z,99773.56
2023-01-19T20:29:21.126Z,99769.41
2023-01-19T20:31:56.255Z,99779.25
2023-01-19T20:34:28.181Z,99775.75
2023-01-19T20:36:57.181Z,99768.63
2023-01-19T20:39:25.272Z,99771.34
2023-01-19T20:41:52.965Z,99765.91
2023-01-19T20:44:34.457Z,99766.59
2023-01-19T20:47:15.931Z,99785.03
2023-01-19T20:50:09.981Z,99774.47
2023-01-19T20:52:38.839Z,99781.69
2023-01-19T20:55:11.701Z,99785.19
2023-01-19T20:57:39.218Z,99790.44
2023-01-19T21:00:07.091Z,99792.97
2023-01-19T21:02:34.443Z,99793.00
2023-01-19T21:05:01.808Z,99797.50
2023-01-19T21:07:29.202Z,99803.72
2023-01-19T21:09:56.571Z,99818.69
2023-01-19T21:12:23.950Z,99809.91
2023-01-19T21:14:51.363Z,99811.72
2023-01-19T21:17:18.719Z,99803.75
2023-01-19T21:19:46.113Z,99806.25
2023-01-19T21:22:13.407Z,99809.66
2023-01-19T21:24:41.771Z,99806.28
2023-01-19T21:27:10.544Z,99792.13
2023-01-19T21:29:37.895Z,99799.00
2023-01-19T21:32:05.448Z,99809.56
2023-01-19T21:34:32.816Z,99808.78
2023-01-19T21:37:00.185Z,99820.28
2023-01-19T21:39:27.660Z,99812.19
2023-01-19T21:41:55.018Z,99814.78
2023-01-19T21:44:22.616Z,99813.06
2023-01-19T21:46:49.943Z,99818.97
2023-01-19T21:49:19.245Z,99830.28
2023-01-19T21:51:48.122Z,99830.41
2023-01-19T21:54:15.536Z,99831.16
2023-01-19T21:56:43.364Z,99827.56
2023-01-19T21:59:15.274Z,99841.53
2023-01-19T22:01:45.055Z,99832.78
2023-01-19T22:04:12.671Z,99836.44
2023-01-19T22:06:40.091Z,99844.44
2023-01-19T22:09:07.942Z,99839.00
2023-01-19T22:11:35.663Z,99843.31
2023-01-19T22:14:03.069Z,99834.63
2023-01-19T22:16:30.909Z,99849.50
2023-01-19T22:19:01.992Z,99853.97
2023-01-19T22:21:35.537Z,99850.44
2023-01-19T22:24:05.125Z,99860.00
2023-01-19T22:26:34.404Z,99856.63
2023-01-19T22:29:02.751Z,99854.94
2023-01-19T22:31:30.859Z,99853.09
2023-01-19T22:33:58.338Z,99861.09
2023-01-19T22:36:28.202Z,99854.94
2023-01-19T22:39:01.188Z,99854.06
2023-01-19T22:41:34.772Z,99850.63
2023-01-19T22:44:07.397Z,99859.50
2023-01-19T22:46:36.462Z,99851.50
2023-01-19T22:49:04.839Z,99852.47
2023-01-19T22:51:33.528Z,99856.00
2023-01-19T22:54:01.328Z,99863.03
2023-01-19T22:56:31.150Z,99854.34
2023-01-19T22:58:59.729Z,99865.78
2023-01-19T23:01:33.670Z,99859.69
2023-01-19T23:04:04.265Z,99854.44
2023-01-19T23:06:34.448Z,99859.94
2023-01-19T23:09:05.593Z,99857.28
2023-01-19T23:11:36.266Z,99866.94
2023-01-19T23:14:04.919Z,99861.72
2023-01-19T23:16:32.504Z,99874.06
2023-01-19T23:19:00.122Z,99876.00
2023-01-19T23:21:29.573Z,99872.50
2023-01-19T23:23:58.982Z,99874.22
2023-01-19T23:26:27.221Z,99882.84
2023-01-19T23:28:56.801Z,99875.81
2023-01-19T23:31:28.119Z,99878.31
2023-01-19T23:34:00.814Z,99881.97
2023-01-19T23:36:30.507Z,99874.91
2023-01-19T23:39:00.440Z,99886.19
2023-01-19T23:41:31.095Z,99886.41
2023-01-19T23:43:58.732Z,99881.16
2023-01-19T23:46:26.621Z,99887.13
2023-01-19T23:48:54.044Z,99882.75
2023-01-19T23:51:26.565Z,99903.81
2023-01-19T23:53:54.531Z,99881.06
2023-01-19T23:56:28.096Z,99889.78
2023-01-19T23:59:01.424Z,99895.06
